createdAt,value
2023-04-26T00:02:18.814Z,96718.27
2023-04-26T00:04:56.715Z,96720.22
2023-04-26T00:07:27.041Z,96715.00
2023-04-26T00:09:57.054Z,96715.54
2023-04-26T00:12:29.440Z,96718.02
2023-04-26T00:14:59.271Z,96716.91
2023-04-26T00:17:45.090Z,96719.78
2023-04-26T00:20:15.077Z,96721.72
2023-04-26T00:22:45.923Z,96721.38
2023-04-26T00:25:24.144Z,96725.86
2023-04-26T00:27:54.952Z,96727.05
2023-04-26T00:30:24.527Z,96727.33
2023-04-26T00:32:55.573Z,96724.69
2023-04-26T00:35:25.004Z,96730.58
2023-04-26T00:37:54.317Z,96736.06
2023-04-26T00:40:24.915Z,96738.27
2023-04-26T00:42:59.003Z,96743.27
2023-04-26T00:45:29.266Z,96742.98
2023-04-26T00:48:01.688Z,96743.02
2023-04-26T00:50:32.755Z,96745.20
2023-04-26T00:53:04.404Z,96749.50
2023-04-26T00:55:35.438Z,96749.02
2023-04-26T00:58:04.873Z,96754.94
2023-04-26T01:00:34.496Z,96751.44
2023-04-26T01:03:04.295Z,96752.20
2023-04-26T01:05:33.593Z,96754.55
2023-04-26T01:08:05.236Z,96756.55
2023-04-26T01:10:36.282Z,96756.40
2023-04-26T01:13:06.135Z,96756.70
2023-04-26T01:15:36.484Z,96752.04
2023-04-26T01:18:06.250Z,96754.61
2023-04-26T01:20:35.964Z,96755.66
2023-04-26T01:23:05.299Z,96758.08
2023-04-26T01:25:35.080Z,96757.89
2023-04-26T01:28:04.566Z,96766.21
2023-04-26T01:30:34.022Z,96767.80
2023-04-26T01:33:06.885Z,96773.71
2023-04-26T01:35:37.613Z,96774.21
2023-04-26T01:38:07.102Z,96777.93
2023-04-26T01:40:36.757Z,96780.30
2023-04-26T01:43:08.541Z,96784.80
2023-04-26T01:45:38.526Z,96781.19
2023-04-26T01:48:26.761Z,96781.64
2023-04-26T01:50:56.594Z,96783.39
2023-04-26T01:53:25.782Z,96784.96
2023-04-26T01:55:56.399Z,96782.08
2023-04-26T01:58:26.720Z,96787.26
2023-04-26T02:00:57.639Z,96790.56
2023-04-26T02:03:27.552Z,96786.88
2023-04-26T02:05:58.612Z,96791.55
2023-04-26T02:08:28.921Z,96794.99
2023-04-26T02:10:58.886Z,96794.46
2023-04-26T02:13:28.880Z,96801.13
2023-04-26T02:16:00.250Z,96799.53
2023-04-26T02:18:30.448Z,96793.98
2023-04-26T02:21:00.301Z,96792.14
2023-04-26T02:23:30.282Z,96792.55
2023-04-26T02:26:00.047Z,96794.06
2023-04-26T02:28:30.108Z,96791.60
2023-04-26T02:30:59.893Z,96792.43
2023-04-26T02:33:29.545Z,96790.83
2023-04-26T02:36:02.854Z,96791.05
2023-04-26T02:38:36.833Z,96793.81
2023-04-26T02:41:07.250Z,96794.01
2023-04-26T02:43:38.736Z,96799.73
2023-04-26T02:46:08.567Z,96798.08
2023-04-26T02:48:37.813Z,96798.14
2023-04-26T02:51:07.736Z,96799.63
2023-04-26T02:53:37.401Z,96801.68
2023-04-26T02:56:07.697Z,96800.67
2023-04-26T02:58:43.626Z,96798.06
2023-04-26T03:01:15.216Z,96798.80
2023-04-26T03:03:45.229Z,96799.71
2023-04-26T03:06:15.411Z,96795.72
2023-04-26T03:08:49.187Z,96804.09
2023-04-26T03:11:20.330Z,96803.77
2023-04-26T03:13:49.810Z,96803.47
2023-04-26T03:16:24.334Z,96805.82
2023-04-26T03:18:55.526Z,96809.33
2023-04-26T03:21:25.085Z,96815.69
2023-04-26T03:23:54.975Z,96815.04
2023-04-26T03:26:25.784Z,96814.55
2023-04-26T03:28:56.015Z,96820.13
2023-04-26T03:31:25.575Z,96822.63
2023-04-26T03:33:54.499Z,96832.48
2023-04-26T03:36:24.553Z,96831.30
2023-04-26T03:38:56.767Z,96831.86
2023-04-26T03:41:26.817Z,96840.20
2023-04-26T03:43:57.198Z,96843.34
2023-04-26T03:46:26.825Z,96851.16
2023-04-26T03:48:57.347Z,96855.13
2023-04-26T03:51:28.815Z,96862.63
2023-04-26T03:54:00.849Z,96864.51
2023-04-26T03:56:32.597Z,96865.88
2023-04-26T03:59:04.445Z,96864.58
2023-04-26T04:01:34.019Z,96862.48
2023-04-26T04:04:03.918Z,96864.18
2023-04-26T04:06:33.441Z,96863.38
2023-04-26T04:09:06.512Z,96869.09
2023-04-26T04:11:39.426Z,96868.06
2023-04-26T04:14:11.613Z,96870.21
2023-04-26T04:16:41.526Z,96873.43
2023-04-26T04:19:11.251Z,96873.95
2023-04-26T04:21:43.281Z,96877.71
2023-04-26T04:24:13.612Z,96879.18
2023-04-26T04:26:42.859Z,96880.98
2023-04-26T04:29:12.970Z,96884.60
2023-04-26T04:31:42.943Z,96889.58
2023-04-26T04:34:12.371Z,96890.54
2023-04-26T04:36:46.675Z,96897.09
2023-04-26T04:39:17.732Z,96900.81
2023-04-26T04:41:49.227Z,96897.81
2023-04-26T04:44:21.219Z,96901.40
2023-04-26T04:46:50.771Z,96899.37
2023-04-26T04:49:21.292Z,96904.63
2023-04-26T04:51:51.790Z,96908.60
2023-04-26T04:54:21.356Z,96909.98
2023-04-26T04:56:51.631Z,96912.18
2023-04-26T04:59:21.940Z,96912.41
2023-04-26T05:01:52.216Z,96917.05
2023-04-26T05:04:21.845Z,96913.67
2023-04-26T05:06:52.793Z,96912.04
2023-04-26T05:09:21.933Z,96918.61
2023-04-26T05:11:52.996Z,96918.99
2023-04-26T05:14:22.893Z,96920.97
2023-04-26T05:16:52.479Z,96923.55
2023-04-26T05:19:21.994Z,96925.55
2023-04-26T05:21:53.692Z,96937.62
2023-04-26T05:24:26.601Z,96930.80
2023-04-26T05:26:55.550Z,96931.54
2023-04-26T05:29:46.287Z,96934.00
2023-04-26T05:32:47.925Z,96937.08
2023-04-26T05:35:29.164Z,96940.68
2023-04-26T05:37:58.642Z,96941.98
2023-04-26T05:40:28.658Z,96944.55
2023-04-26T05:42:59.789Z,96942.96
2023-04-26T05:45:31.790Z,96946.91
2023-04-26T05:48:02.554Z,96945.84
2023-04-26T05:50:32.358Z,96948.11
2023-04-26T05:53:01.929Z,96957.75
2023-04-26T05:55:31.904Z,96956.96
2023-04-26T05:58:01.570Z,96959.65
2023-04-26T06:00:31.333Z,96962.82
2023-04-26T06:03:02.327Z,96969.94
2023-04-26T06:05:33.845Z,96973.58
2023-04-26T06:08:03.512Z,96974.39
2023-04-26T06:10:33.569Z,96980.89
2023-04-26T06:13:04.745Z,96976.54
2023-04-26T06:15:36.454Z,96980.77
2023-04-26T06:18:07.506Z,96985.12
2023-04-26T06:20:37.704Z,96984.30
2023-04-26T06:23:09.834Z,96994.50
2023-04-26T06:25:45.428Z,96996.02
2023-04-26T06:28:15.872Z,96998.12
2023-04-26T06:30:45.448Z,96996.91
2023-04-26T06:33:16.131Z,96997.71
2023-04-26T06:35:45.407Z,96997.04
2023-04-26T06:38:17.689Z,97001.12
2023-04-26T06:40:49.176Z,97007.14
2023-04-26T06:43:19.933Z,97012.98
2023-04-26T06:46:02.819Z,97021.66
2023-04-26T06:48:34.119Z,97024.93
2023-04-26T06:51:08.223Z,97023.27
2023-04-26T06:53:38.680Z,97027.17
2023-04-26T06:56:10.195Z,97031.17
2023-04-26T06:58:40.721Z,97035.80
2023-04-26T07:01:11.609Z,97038.50
2023-04-26T07:03:43.096Z,97036.70
2023-04-26T07:06:12.767Z,97041.41
2023-04-26T07:08:42.258Z,97045.24
2023-04-26T07:11:13.868Z,97050.17
2023-04-26T07:13:43.398Z,97054.91
2023-04-26T07:16:14.447Z,97055.52
2023-04-26T07:18:43.448Z,97066.77
2023-04-26T07:21:14.418Z,97058.70
2023-04-26T07:23:43.657Z,97064.40
2023-04-26T07:26:13.617Z,97062.23
2023-04-26T07:28:43.036Z,97066.55
2023-04-26T07:31:13.092Z,97072.27
2023-04-26T07:33:44.398Z,97075.23
2023-04-26T07:36:14.319Z,97084.13
2023-04-26T07:38:44.013Z,97086.42
2023-04-26T07:41:13.435Z,97083.52
2023-04-26T07:43:43.944Z,97090.19
2023-04-26T07:46:14.431Z,97093.63
2023-04-26T07:48:45.214Z,97103.76
2023-04-26T07:51:14.676Z,97100.60
2023-04-26T07:53:44.183Z,97109.86
2023-04-26T07:56:14.229Z,97114.14
2023-04-26T07:58:46.305Z,97116.17
2023-04-26T08:01:16.897Z,97118.56
2023-04-26T08:03:52.631Z,97115.54
2023-04-26T08:06:29.845Z,97123.40
2023-04-26T08:08:59.646Z,97125.23
2023-04-26T08:11:29.777Z,97131.39
2023-04-26T08:14:00.668Z,97127.94
2023-04-26T08:16:31.499Z,97129.70
2023-04-26T08:19:03.758Z,97137.74
2023-04-26T08:21:33.368Z,97144.05
2023-04-26T08:24:04.249Z,97147.29
2023-04-26T08:26:36.652Z,97151.41
2023-04-26T08:29:08.110Z,97154.67
2023-04-26T08:31:38.328Z,97154.86
2023-04-26T08:34:14.022Z,97159.58
2023-04-26T08:36:47.370Z,97161.46
2023-04-26T08:39:20.262Z,97161.02
2023-04-26T08:41:58.043Z,97159.17
2023-04-26T08:44:29.680Z,97161.30
2023-04-26T08:47:06.382Z,97160.73
2023-04-26T08:49:42.571Z,97162.88
2023-04-26T08:52:17.586Z,97160.50
2023-04-26T08:54:47.678Z,97164.31
2023-04-26T08:57:17.073Z,97164.33
2023-04-26T08:59:48.157Z,97167.31
2023-04-26T09:02:21.358Z,97164.55
2023-04-26T09:04:52.827Z,97169.86
2023-04-26T09:07:24.614Z,97170.20
2023-04-26T09:09:58.133Z,97174.93
2023-04-26T09:12:28.468Z,97176.74
2023-04-26T09:14:58.633Z,97178.66
2023-04-26T09:17:39.465Z,97181.45
2023-04-26T09:20:19.299Z,97180.98
2023-04-26T09:22:52.286Z,97185.13
2023-04-26T09:25:30.553Z,97186.96
2023-04-26T09:28:02.331Z,97187.91
2023-04-26T09:30:42.228Z,97191.45
2023-04-26T09:33:11.963Z,97190.90
2023-04-26T09:35:45.015Z,97192.25
2023-04-26T09:38:18.859Z,97199.41
2023-04-26T09:40:51.724Z,97191.52
2023-04-26T09:43:22.530Z,97196.63
2023-04-26T09:45:55.983Z,97194.08
2023-04-26T09:48:34.880Z,97198.86
2023-04-26T09:51:14.495Z,97200.70
2023-04-26T09:53:51.407Z,97199.89
2023-04-26T09:56:22.381Z,97195.35
2023-04-26T09:59:01.869Z,97196.08
2023-04-26T10:01:31.748Z,97203.85
2023-04-26T10:04:05.276Z,97197.48
2023-04-26T10:06:37.363Z,97198.86
2023-04-26T10:09:09.926Z,97197.29
2023-04-26T10:11:40.460Z,97202.29
2023-04-26T10:14:10.459Z,97200.49
2023-04-26T10:16:42.543Z,97199.75
2023-04-26T10:19:12.643Z,97200.83
2023-04-26T10:21:50.462Z,97204.02
2023-04-26T10:24:21.073Z,97204.58
2023-04-26T10:26:53.943Z,97201.65
2023-04-26T10:29:26.394Z,97196.70
2023-04-26T10:32:02.158Z,97201.60
2023-04-26T10:34:35.291Z,97203.13
2023-04-26T10:37:11.714Z,97205.58
2023-04-26T10:39:43.653Z,97198.45
2023-04-26T10:42:28.280Z,97206.08
2023-04-26T10:44:59.562Z,97206.81
2023-04-26T10:47:29.967Z,97202.29
2023-04-26T10:50:06.414Z,97205.05
2023-04-26T10:52:39.843Z,97208.95
2023-04-26T10:55:10.813Z,97209.09
2023-04-26T10:57:54.536Z,97209.89
2023-04-26T11:00:32.384Z,97214.48
2023-04-26T11:03:12.179Z,97215.77
2023-04-26T11:06:10.308Z,97214.41
2023-04-26T11:08:39.375Z,97215.73
2023-04-26T11:11:14.171Z,97220.35
2023-04-26T11:13:44.494Z,97220.59
2023-04-26T11:16:16.357Z,97216.38
2023-04-26T11:18:55.270Z,97217.20
2023-04-26T11:21:27.281Z,97214.81
2023-04-26T11:23:56.872Z,97216.02
2023-04-26T11:26:38.014Z,97219.55
2023-04-26T11:29:13.840Z,97224.86
2023-04-26T11:31:43.340Z,97223.87
2023-04-26T11:34:14.712Z,97221.77
2023-04-26T11:36:47.078Z,97226.83
2023-04-26T11:39:21.012Z,97228.33
2023-04-26T11:41:51.113Z,97231.86
2023-04-26T11:44:21.267Z,97233.13
2023-04-26T11:46:51.929Z,97241.23
2023-04-26T11:49:21.939Z,97237.38
2023-04-26T11:51:51.714Z,97233.59
2023-04-26T11:54:35.447Z,97236.77
2023-04-26T11:57:18.638Z,97232.61
2023-04-26T11:59:50.888Z,97233.16
2023-04-26T12:02:24.830Z,97230.34
2023-04-26T12:05:01.751Z,97229.46
2023-04-26T12:07:41.039Z,97230.92
2023-04-26T12:10:16.903Z,97226.33
2023-04-26T12:12:51.479Z,97229.41
2023-04-26T12:15:25.131Z,97228.66
2023-04-26T12:18:13.240Z,97226.59
2023-04-26T12:20:44.760Z,97225.58
2023-04-26T12:23:18.281Z,97227.48
2023-04-26T12:25:57.595Z,97231.28
2023-04-26T12:28:27.013Z,97234.88
2023-04-26T12:30:58.059Z,97234.42
2023-04-26T12:33:48.596Z,97231.00
2023-04-26T12:36:19.049Z,97229.11
2023-04-26T12:38:48.135Z,97235.27
2023-04-26T12:41:17.945Z,97232.33
2023-04-26T12:43:48.480Z,97234.52
2023-04-26T12:46:18.622Z,97232.06
2023-04-26T12:48:47.857Z,97232.29
2023-04-26T12:51:17.168Z,97232.07
2023-04-26T12:53:47.016Z,97230.99
2023-04-26T12:56:17.954Z,97237.05
2023-04-26T12:58:48.981Z,97236.08
2023-04-26T13:01:18.789Z,97233.50
2023-04-26T13:03:49.571Z,97235.42
2023-04-26T13:06:19.399Z,97235.67
2023-04-26T13:08:49.842Z,97232.45
2023-04-26T13:11:18.906Z,97240.25
2023-04-26T13:13:53.580Z,97238.42
2023-04-26T13:16:23.056Z,97242.07
2023-04-26T13:18:52.608Z,97247.60
2023-04-26T13:21:23.004Z,97248.29
2023-04-26T13:23:52.218Z,97253.11
2023-04-26T13:26:27.531Z,97253.63
2023-04-26T13:28:57.371Z,97260.61
2023-04-26T13:31:27.465Z,97261.53
2023-04-26T13:33:57.379Z,97261.83
2023-04-26T13:36:30.542Z,97255.14
2023-04-26T13:38:59.909Z,97261.99
2023-04-26T13:41:34.970Z,97262.77
2023-04-26T13:44:06.108Z,97268.36
2023-04-26T13:46:35.787Z,97273.88
2023-04-26T13:49:05.896Z,97269.63
2023-04-26T13:51:36.454Z,97271.39
2023-04-26T13:54:08.662Z,97267.86
2023-04-26T13:56:39.664Z,97267.83
2023-04-26T13:59:09.746Z,97266.62
2023-04-26T14:01:41.118Z,97267.84
2023-04-26T14:04:13.218Z,97271.28
2023-04-26T14:06:43.467Z,97268.88
2023-04-26T14:09:12.416Z,97271.46
2023-04-26T14:11:41.481Z,97268.45
2023-04-26T14:14:11.695Z,97271.67
2023-04-26T14:16:44.513Z,97274.83
2023-04-26T14:19:15.891Z,97283.86
2023-04-26T14:21:45.071Z,97285.11
2023-04-26T14:24:15.896Z,97287.49
2023-04-26T14:26:46.343Z,97295.45
2023-04-26T14:29:16.134Z,97295.15
2023-04-26T14:31:46.635Z,97295.23
2023-04-26T14:34:15.785Z,97303.32
2023-04-26T14:36:45.212Z,97301.11
2023-04-26T14:39:16.743Z,97304.71
2023-04-26T14:41:47.057Z,97300.54
2023-04-26T14:44:18.604Z,97305.27
2023-04-26T14:46:47.886Z,97307.77
2023-04-26T14:49:18.040Z,97314.05
2023-04-26T14:51:47.579Z,97318.61
2023-04-26T14:54:18.058Z,97319.08
2023-04-26T14:56:47.437Z,97324.27
2023-04-26T14:59:20.861Z,97322.26
2023-04-26T15:01:55.140Z,97323.39
2023-04-26T15:04:27.303Z,97323.83
2023-04-26T15:06:57.895Z,97328.14
2023-04-26T15:09:29.707Z,97332.79
2023-04-26T15:12:00.178Z,97335.73
2023-04-26T15:14:30.595Z,97335.73
2023-04-26T15:17:00.691Z,97339.33
2023-04-26T15:19:30.695Z,97342.87
2023-04-26T15:22:00.445Z,97345.76
2023-04-26T15:24:37.925Z,97349.44
2023-04-26T15:27:08.835Z,97353.14
2023-04-26T15:29:38.668Z,97356.01
2023-04-26T15:32:10.152Z,97358.08
2023-04-26T15:34:44.299Z,97357.61
2023-04-26T15:37:14.809Z,97355.80
2023-04-26T15:39:46.106Z,97355.05
2023-04-26T15:42:18.632Z,97358.04
2023-04-26T15:44:49.370Z,97358.42
2023-04-26T15:47:19.088Z,97360.67
2023-04-26T15:49:48.552Z,97362.13
2023-04-26T15:52:18.794Z,97361.67
2023-04-26T15:54:48.297Z,97362.35
2023-04-26T15:57:18.175Z,97357.69
2023-04-26T15:59:47.621Z,97363.73
2023-04-26T16:02:17.991Z,97368.83
2023-04-26T16:04:49.949Z,97369.11
2023-04-26T16:07:19.978Z,97374.31
2023-04-26T16:09:49.426Z,97377.73
2023-04-26T16:12:19.431Z,97373.64
2023-04-26T16:14:52.431Z,97382.73
2023-04-26T16:17:23.774Z,97384.40
2023-04-26T16:19:53.390Z,97385.22
2023-04-26T16:22:23.538Z,97388.13
2023-04-26T16:24:55.365Z,97393.92
2023-04-26T16:27:25.562Z,97396.99
2023-04-26T16:29:55.297Z,97396.14
2023-04-26T16:32:26.781Z,97395.32
2023-04-26T16:34:56.088Z,97398.52
2023-04-26T16:37:25.553Z,97404.52
2023-04-26T16:39:57.119Z,97403.43
2023-04-26T16:42:26.716Z,97405.52
2023-04-26T16:44:56.541Z,97409.67
2023-04-26T16:47:27.228Z,97414.44
2023-04-26T16:49:57.769Z,97419.55
2023-04-26T16:52:27.748Z,97423.73
2023-04-26T16:54:58.658Z,97421.70
2023-04-26T16:57:30.012Z,97429.04
2023-04-26T17:00:02.924Z,97432.64
2023-04-26T17:02:32.158Z,97437.55
2023-04-26T17:05:03.772Z,97442.63
2023-04-26T17:07:33.547Z,97446.42
2023-04-26T17:10:03.059Z,97448.54
2023-04-26T17:12:33.079Z,97454.16
2023-04-26T17:15:04.490Z,97456.02
2023-04-26T17:17:35.570Z,97462.19
2023-04-26T17:20:09.491Z,97464.31
2023-04-26T17:22:41.790Z,97467.31
2023-04-26T17:25:11.663Z,97471.63
2023-04-26T17:27:40.772Z,97475.66
2023-04-26T17:30:11.385Z,97480.00
2023-04-26T17:32:41.644Z,97481.05
2023-04-26T17:35:10.668Z,97485.20
2023-04-26T17:37:46.874Z,97487.48
2023-04-26T17:40:18.690Z,97498.31
2023-04-26T17:42:48.839Z,97504.22
2023-04-26T17:45:17.988Z,97506.98
2023-04-26T17:47:48.147Z,97513.77
2023-04-26T17:50:18.270Z,97513.48
2023-04-26T17:52:48.704Z,97513.75
2023-04-26T17:55:17.991Z,97517.11
2023-04-26T17:57:48.836Z,97519.02
2023-04-26T18:00:19.627Z,97517.70
2023-04-26T18:02:49.851Z,97517.72
2023-04-26T18:05:19.310Z,97521.67
2023-04-26T18:07:48.575Z,97527.73
2023-04-26T18:10:18.173Z,97526.48
2023-04-26T18:12:48.780Z,97527.70
2023-04-26T18:15:17.903Z,97528.14
2023-04-26T18:17:47.089Z,97532.83
2023-04-26T18:20:16.825Z,97533.13
2023-04-26T18:22:46.544Z,97540.54
2023-04-26T18:25:15.844Z,97539.55
2023-04-26T18:27:46.650Z,97543.27
2023-04-26T18:30:18.816Z,97548.99
2023-04-26T18:32:51.706Z,97551.60
2023-04-26T18:35:22.392Z,97557.85
2023-04-26T18:37:52.102Z,97561.30
2023-04-26T18:40:22.045Z,97564.48
2023-04-26T18:42:52.576Z,97566.23
2023-04-26T18:45:22.150Z,97567.16
2023-04-26T18:47:54.672Z,97569.56
2023-04-26T18:50:27.618Z,97570.45
2023-04-26T18:52:58.012Z,97569.49
2023-04-26T18:55:27.822Z,97570.18
2023-04-26T18:57:58.164Z,97573.02
2023-04-26T19:00:30.436Z,97574.45
2023-04-26T19:02:59.932Z,97579.64
2023-04-26T19:05:29.625Z,97581.98
2023-04-26T19:07:59.342Z,97582.88
2023-04-26T19:10:29.353Z,97583.55
2023-04-26T19:13:02.815Z,97587.61
2023-04-26T19:15:32.390Z,97597.34
2023-04-26T19:18:01.882Z,97597.21
2023-04-26T19:20:31.963Z,97599.30
2023-04-26T19:23:01.963Z,97600.98
2023-04-26T19:25:32.419Z,97606.27
2023-04-26T19:28:02.657Z,97603.45
2023-04-26T19:30:32.322Z,97604.27
2023-04-26T19:33:02.101Z,97603.86
2023-04-26T19:35:31.964Z,97602.13
2023-04-26T19:38:05.453Z,97606.17
2023-04-26T19:40:35.559Z,97603.52
2023-04-26T19:43:05.524Z,97600.26
2023-04-26T19:45:35.047Z,97605.65
2023-04-26T19:48:09.284Z,97601.22
2023-04-26T19:50:43.037Z,97602.87
2023-04-26T19:53:14.457Z,97608.83
2023-04-26T19:55:44.323Z,97610.55
2023-04-26T19:58:13.910Z,97610.77
2023-04-26T20:00:44.051Z,97609.25
2023-04-26T20:03:13.019Z,97611.31
2023-04-26T20:05:43.171Z,97614.74
2023-04-26T20:08:13.126Z,97621.64
2023-04-26T20:10:42.636Z,97622.46
2023-04-26T20:13:12.211Z,97621.19
2023-04-26T20:15:42.141Z,97623.12
2023-04-26T20:18:12.224Z,97624.28
2023-04-26T20:20:42.461Z,97629.15
2023-04-26T20:23:13.087Z,97627.61
2023-04-26T20:25:43.146Z,97625.90
2023-04-26T20:28:13.268Z,97624.83
2023-04-26T20:30:43.323Z,97622.19
2023-04-26T20:33:12.713Z,97627.45
2023-04-26T20:35:43.026Z,97626.08
2023-04-26T20:38:13.108Z,97622.97
2023-04-26T20:40:42.748Z,97631.67
2023-04-26T20:43:12.582Z,97629.61
2023-04-26T20:45:42.923Z,97633.79
2023-04-26T20:48:13.502Z,97631.88
2023-04-26T20:50:43.387Z,97633.41
2023-04-26T20:53:14.100Z,97631.74
2023-04-26T20:55:43.417Z,97634.84
2023-04-26T20:58:13.018Z,97639.91
2023-04-26T21:00:51.855Z,97642.30
2023-04-26T21:03:21.957Z,97648.31
2023-04-26T21:05:51.884Z,97654.14
2023-04-26T21:08:21.652Z,97660.14
2023-04-26T21:10:51.514Z,97660.57
2023-04-26T21:13:22.926Z,97656.97
2023-04-26T21:15:52.632Z,97658.29
2023-04-26T21:18:22.803Z,97660.15
2023-04-26T21:20:52.810Z,97661.09
2023-04-26T21:23:22.268Z,97666.35
2023-04-26T21:25:51.812Z,97668.85
2023-04-26T21:28:21.529Z,97672.30
2023-04-26T21:31:05.267Z,97671.45
2023-04-26T21:33:36.677Z,97672.11
2023-04-26T21:36:07.211Z,97673.47
2023-04-26T21:38:37.686Z,97674.44
2023-04-26T21:41:08.312Z,97674.88
2023-04-26T21:43:38.079Z,97673.34
2023-04-26T21:46:08.389Z,97676.50
2023-04-26T21:48:39.781Z,97678.13
2023-04-26T21:51:09.349Z,97679.02
2023-04-26T21:53:39.905Z,97680.77
2023-04-26T21:56:10.578Z,97679.14
2023-04-26T21:58:39.937Z,97678.78
2023-04-26T22:01:12.777Z,97680.16
2023-04-26T22:03:43.252Z,97683.36
2023-04-26T22:06:13.183Z,97686.63
2023-04-26T22:08:43.198Z,97691.23
2023-04-26T22:11:19.125Z,97696.55
2023-04-26T22:13:48.469Z,97702.81
2023-04-26T22:16:18.363Z,97702.30
2023-04-26T22:18:47.773Z,97701.29
2023-04-26T22:21:17.999Z,97698.87
2023-04-26T22:23:47.754Z,97702.20
2023-04-26T22:26:18.864Z,97701.76
2023-04-26T22:28:49.031Z,97699.39
2023-04-26T22:31:19.124Z,97701.48
2023-04-26T22:33:49.431Z,97703.16
2023-04-26T22:36:19.464Z,97701.20
2023-04-26T22:38:48.915Z,97698.63
2023-04-26T22:41:22.009Z,97698.73
2023-04-26T22:43:53.340Z,97698.33
2023-04-26T22:46:24.164Z,97697.31
2023-04-26T22:48:53.833Z,97700.55
2023-04-26T22:51:23.975Z,97703.05
2023-04-26T22:53:53.664Z,97701.88
2023-04-26T22:56:23.563Z,97697.48
2023-04-26T22:58:53.304Z,97695.55
2023-04-26T23:01:25.808Z,97694.38
2023-04-26T23:03:56.004Z,97695.58
2023-04-26T23:06:27.195Z,97699.73
2023-04-26T23:08:58.131Z,97696.02
2023-04-26T23:11:28.702Z,97695.76
2023-04-26T23:14:01.407Z,97696.03
2023-04-26T23:16:31.018Z,97695.55
2023-04-26T23:19:01.077Z,97697.27
2023-04-26T23:21:31.684Z,97697.97
2023-04-26T23:24:01.682Z,97702.82
2023-04-26T23:26:31.588Z,97700.04
2023-04-26T23:29:02.050Z,97699.89
2023-04-26T23:31:32.199Z,97703.19
2023-04-26T23:34:02.550Z,97702.80
2023-04-26T23:36:33.900Z,97699.33
2023-04-26T23:39:04.694Z,97698.90
2023-04-26T23:41:34.732Z,97696.90
2023-04-26T23:44:04.175Z,97695.63
2023-04-26T23:46:34.291Z,97699.33
2023-04-26T23:49:03.770Z,97696.86
2023-04-26T23:51:33.832Z,97694.17
2023-04-26T23:54:03.916Z,97696.80
2023-04-26T23:56:33.222Z,97698.00
2023-04-26T23:59:04.025Z,97695.91
